sensor_id;sensor_type;location;lat;lon;timestamp;P1;durP1;ratioP1;P2;durP2;ratioP2
60492;SDS011;46341;51.290;-2.474;2023-03-03T00:01:42;15.32;;;9.23;;
60492;SDS011;46341;51.290;-2.474;2023-03-03T00:04:09;12.88;;;8.65;;
60492;SDS011;46341;51.290;-2.474;2023-03-03T00:06:35;12.77;;;7.97;;
60492;SDS011;46341;51.290;-2.474;2023-03-03T00:09:02;9.60;;;6.68;;
60492;SDS011;46341;51.290;-2.474;2023-03-03T00:11:28;13.95;;;7.75;;
60492;SDS011;46341;51.290;-2.474;2023-03-03T00:13:55;11.15;;;6.88;;
60492;SDS011;46341;51.290;-2.474;2023-03-03T00:18:48;7.68;;;6.50;;
60492;SDS011;46341;51.290;-2.474;2023-03-03T00:21:22;8.52;;;6.00;;
60492;SDS011;46341;51.290;-2.474;2023-03-03T00:23:51;9.27;;;6.80;;
60492;SDS011;46341;51.290;-2.474;2023-03-03T00:26:22;8.32;;;5.90;;
60492;SDS011;46341;51.290;-2.474;2023-03-03T00:28:52;7.78;;;5.60;;
60492;SDS011;46341;51.290;-2.474;2023-03-03T00:31:20;5.97;;;5.20;;
60492;SDS011;46341;51.290;-2.474;2023-03-03T00:33:49;6.75;;;5.63;;
60492;SDS011;46341;51.290;-2.474;2023-03-03T00:36:36;7.13;;;5.85;;
60492;SDS011;46341;51.290;-2.474;2023-03-03T00:39:21;7.78;;;5.55;;
60492;SDS011;46341;51.290;-2.474;2023-03-03T00:41:49;9.18;;;5.90;;
60492;SDS011;46341;51.290;-2.474;2023-03-03T00:46:54;8.68;;;5.97;;
60492;SDS011;46341;51.290;-2.474;2023-03-03T00:49:23;9.13;;;5.32;;
60492;SDS011;46341;51.290;-2.474;2023-03-03T00:51:51;6.20;;;5.63;;
60492;SDS011;46341;51.290;-2.474;2023-03-03T00:54:17;7.75;;;4.95;;
60492;SDS011;46341;51.290;-2.474;2023-03-03T00:56:43;7.55;;;5.25;;
60492;SDS011;46341;51.290;-2.474;2023-03-03T00:59:10;7.60;;;4.88;;
60492;SDS011;46341;51.290;-2.474;2023-03-03T01:01:36;5.10;;;4.57;;
60492;SDS011;46341;51.290;-2.474;2023-03-03T01:04:03;6.82;;;4.80;;
60492;SDS011;46341;51.290;-2.474;2023-03-03T01:06:29;4.85;;;4.43;;
60492;SDS011;46341;51.290;-2.474;2023-03-03T01:08:56;5.93;;;5.32;;
60492;SDS011;46341;51.290;-2.474;2023-03-03T01:11:23;7.55;;;5.25;;
60492;SDS011;46341;51.290;-2.474;2023-03-03T01:13:51;7.55;;;5.10;;
60492;SDS011;46341;51.290;-2.474;2023-03-03T01:16:18;6.65;;;5.07;;
60492;SDS011;46341;51.290;-2.474;2023-03-03T01:18:44;5.30;;;4.80;;
60492;SDS011;46341;51.290;-2.474;2023-03-03T01:21:11;5.90;;;4.75;;
60492;SDS011;46341;51.290;-2.474;2023-03-03T01:23:37;5.07;;;4.57;;
60492;SDS011;46341;51.290;-2.474;2023-03-03T01:26:04;7.35;;;4.95;;
60492;SDS011;46341;51.290;-2.474;2023-03-03T01:28:31;7.97;;;5.47;;
60492;SDS011;46341;51.290;-2.474;2023-03-03T01:31:01;7.72;;;5.15;;
60492;SDS011;46341;51.290;-2.474;2023-03-03T01:33:29;14.77;;;10.02;;
60492;SDS011;46341;51.290;-2.474;2023-03-03T01:35:56;76.55;;;46.40;;
60492;SDS011;46341;51.290;-2.474;2023-03-03T01:38:23;28.02;;;16.95;;
60492;SDS011;46341;51.290;-2.474;2023-03-03T01:40:53;7.70;;;6.22;;
60492;SDS011;46341;51.290;-2.474;2023-03-03T01:43:19;7.13;;;5.65;;
60492;SDS011;46341;51.290;-2.474;2023-03-03T01:50:40;9.73;;;6.97;;
60492;SDS011;46341;51.290;-2.474;2023-03-03T01:53:10;10.15;;;7.25;;
60492;SDS011;46341;51.290;-2.474;2023-03-03T01:55:38;51.75;;;31.48;;
60492;SDS011;46341;51.290;-2.474;2023-03-03T01:58:10;43.42;;;25.60;;
60492;SDS011;46341;51.290;-2.474;2023-03-03T02:00:39;33.92;;;20.02;;
60492;SDS011;46341;51.290;-2.474;2023-03-03T02:03:07;29.58;;;18.52;;
60492;SDS011;46341;51.290;-2.474;2023-03-03T02:05:34;34.37;;;20.13;;
60492;SDS011;46341;51.290;-2.474;2023-03-03T02:08:01;32.80;;;19.10;;
60492;SDS011;46341;51.290;-2.474;2023-03-03T02:10:28;22.60;;;13.38;;
60492;SDS011;46341;51.290;-2.474;2023-03-03T02:12:56;51.30;;;35.28;;
60492;SDS011;46341;51.290;-2.474;2023-03-03T02:15:24;26.88;;;16.90;;
60492;SDS011;46341;51.290;-2.474;2023-03-03T02:20:37;25.98;;;14.60;;
60492;SDS011;46341;51.290;-2.474;2023-03-03T02:23:06;31.08;;;17.30;;
60492;SDS011;46341;51.290;-2.474;2023-03-03T02:25:36;26.80;;;16.35;;
60492;SDS011;46341;51.290;-2.474;2023-03-03T02:28:04;13.95;;;8.82;;
60492;SDS011;46341;51.290;-2.474;2023-03-03T02:30:31;8.20;;;6.35;;
60492;SDS011;46341;51.290;-2.474;2023-03-03T02:33:01;8.38;;;6.70;;
60492;SDS011;46341;51.290;-2.474;2023-03-03T02:37:59;8.07;;;7.03;;
60492;SDS011;46341;51.290;-2.474;2023-03-03T02:40:27;11.02;;;7.70;;
60492;SDS011;46341;51.290;-2.474;2023-03-03T02:45:21;36.13;;;24.38;;
60492;SDS011;46341;51.290;-2.474;2023-03-03T02:47:48;29.70;;;18.67;;
60492;SDS011;46341;51.290;-2.474;2023-03-03T02:50:15;42.47;;;24.00;;
60492;SDS011;46341;51.290;-2.474;2023-03-03T02:52:42;12.18;;;7.30;;
60492;SDS011;46341;51.290;-2.474;2023-03-03T02:55:08;8.10;;;6.47;;
60492;SDS011;46341;51.290;-2.474;2023-03-03T02:57:35;26.90;;;15.10;;
60492;SDS011;46341;51.290;-2.474;2023-03-03T03:00:01;9.60;;;7.00;;
60492;SDS011;46341;51.290;-2.474;2023-03-03T03:02:27;12.35;;;7.63;;
60492;SDS011;46341;51.290;-2.474;2023-03-03T03:04:54;17.23;;;10.15;;
60492;SDS011;46341;51.290;-2.474;2023-03-03T03:07:20;38.00;;;19.15;;
60492;SDS011;46341;51.290;-2.474;2023-03-03T03:09:46;16.90;;;10.52;;
60492;SDS011;46341;51.290;-2.474;2023-03-03T03:12:13;12.50;;;8.18;;
60492;SDS011;46341;51.290;-2.474;2023-03-03T03:14:41;14.88;;;10.05;;
60492;SDS011;46341;51.290;-2.474;2023-03-03T03:17:07;52.47;;;27.55;;
60492;SDS011;46341;51.290;-2.474;2023-03-03T03:19:33;56.92;;;30.17;;
60492;SDS011;46341;51.290;-2.474;2023-03-03T03:22:00;33.08;;;19.27;;
60492;SDS011;46341;51.290;-2.474;2023-03-03T03:24:26;100.93;;;60.13;;
60492;SDS011;46341;51.290;-2.474;2023-03-03T03:26:52;32.17;;;20.98;;
60492;SDS011;46341;51.290;-2.474;2023-03-03T03:29:19;18.40;;;12.45;;
60492;SDS011;46341;51.290;-2.474;2023-03-03T03:31:45;10.05;;;7.25;;
60492;SDS011;46341;51.290;-2.474;2023-03-03T03:34:12;8.43;;;7.00;;
60492;SDS011;46341;51.290;-2.474;2023-03-03T03:36:38;10.30;;;7.10;;
60492;SDS011;46341;51.290;-2.474;2023-03-03T03:39:05;10.98;;;7.70;;
60492;SDS011;46341;51.290;-2.474;2023-03-03T03:41:31;10.00;;;7.85;;
60492;SDS011;46341;51.290;-2.474;2023-03-03T03:43:58;18.23;;;11.45;;
60492;SDS011;46341;51.290;-2.474;2023-03-03T03:46:24;23.73;;;14.13;;
60492;SDS011;46341;51.290;-2.474;2023-03-03T03:48:50;18.80;;;11.63;;
60492;SDS011;46341;51.290;-2.474;2023-03-03T03:51:17;12.98;;;8.82;;
60492;SDS011;46341;51.290;-2.474;2023-03-03T03:53:43;13.35;;;9.23;;
60492;SDS011;46341;51.290;-2.474;2023-03-03T03:56:10;24.27;;;16.03;;
60492;SDS011;46341;51.290;-2.474;2023-03-03T03:58:39;18.20;;;13.07;;
60492;SDS011;46341;51.290;-2.474;2023-03-03T04:01:06;25.30;;;15.35;;
60492;SDS011;46341;51.290;-2.474;2023-03-03T04:03:33;29.35;;;17.52;;
60492;SDS011;46341;51.290;-2.474;2023-03-03T04:05:59;28.48;;;17.08;;
60492;SDS011;46341;51.290;-2.474;2023-03-03T04:08:26;21.52;;;13.05;;
60492;SDS011;46341;51.290;-2.474;2023-03-03T04:10:52;39.15;;;22.15;;
60492;SDS011;46341;51.290;-2.474;2023-03-03T04:13:18;57.63;;;27.40;;
60492;SDS011;46341;51.290;-2.474;2023-03-03T04:15:45;56.15;;;27.92;;
60492;SDS011;46341;51.290;-2.474;2023-03-03T04:18:11;44.53;;;21.77;;
60492;SDS011;46341;51.290;-2.474;2023-03-03T04:20:38;34.47;;;18.27;;
60492;SDS011;46341;51.290;-2.474;2023-03-03T04:23:05;29.27;;;15.55;;
60492;SDS011;46341;51.290;-2.474;2023-03-03T04:25:31;16.33;;;9.38;;
60492;SDS011;46341;51.290;-2.474;2023-03-03T04:27:57;12.10;;;7.47;;
60492;SDS011;46341;51.290;-2.474;2023-03-03T04:30:24;11.60;;;7.82;;
60492;SDS011;46341;51.290;-2.474;2023-03-03T04:32:52;11.70;;;8.35;;
60492;SDS011;46341;51.290;-2.474;2023-03-03T04:35:18;8.75;;;6.63;;
60492;SDS011;46341;51.290;-2.474;2023-03-03T04:37:45;8.98;;;6.72;;
60492;SDS011;46341;51.290;-2.474;2023-03-03T04:40:11;7.03;;;5.78;;
60492;SDS011;46341;51.290;-2.474;2023-03-03T04:42:37;7.43;;;5.53;;
60492;SDS011;46341;51.290;-2.474;2023-03-03T04:45:04;7.75;;;5.63;;
60492;SDS011;46341;51.290;-2.474;2023-03-03T04:47:31;7.03;;;5.40;;
60492;SDS011;46341;51.290;-2.474;2023-03-03T04:49:57;6.47;;;5.75;;
60492;SDS011;46341;51.290;-2.474;2023-03-03T04:52:24;6.45;;;5.57;;
60492;SDS011;46341;51.290;-2.474;2023-03-03T04:54:50;8.85;;;5.63;;
60492;SDS011;46341;51.290;-2.474;2023-03-03T04:57:16;6.03;;;5.32;;
60492;SDS011;46341;51.290;-2.474;2023-03-03T04:59:43;10.10;;;5.68;;
60492;SDS011;46341;51.290;-2.474;2023-03-03T05:02:09;9.93;;;5.55;;
60492;SDS011;46341;51.290;-2.474;2023-03-03T05:04:36;6.28;;;5.47;;
60492;SDS011;46341;51.290;-2.474;2023-03-03T05:07:02;8.93;;;5.82;;
60492;SDS011;46341;51.290;-2.474;2023-03-03T05:09:29;8.40;;;5.68;;
60492;SDS011;46341;51.290;-2.474;2023-03-03T05:11:55;8.88;;;6.03;;
60492;SDS011;46341;51.290;-2.474;2023-03-03T05:14:22;6.55;;;5.88;;
60492;SDS011;46341;51.290;-2.474;2023-03-03T05:16:48;6.80;;;5.18;;
60492;SDS011;46341;51.290;-2.474;2023-03-03T05:19:14;6.40;;;5.80;;
60492;SDS011;46341;51.290;-2.474;2023-03-03T05:21:41;8.10;;;5.63;;
60492;SDS011;46341;51.290;-2.474;2023-03-03T05:24:11;8.02;;;5.97;;
60492;SDS011;46341;51.290;-2.474;2023-03-03T05:26:38;7.68;;;6.00;;
60492;SDS011;46341;51.290;-2.474;2023-03-03T05:29:05;7.57;;;6.13;;
60492;SDS011;46341;51.290;-2.474;2023-03-03T05:31:32;9.07;;;6.20;;
60492;SDS011;46341;51.290;-2.474;2023-03-03T05:33:58;8.50;;;5.97;;
60492;SDS011;46341;51.290;-2.474;2023-03-03T05:36:25;8.02;;;6.38;;
60492;SDS011;46341;51.290;-2.474;2023-03-03T05:38:51;7.00;;;6.30;;
60492;SDS011;46341;51.290;-2.474;2023-03-03T05:41:18;7.93;;;6.25;;
60492;SDS011;46341;51.290;-2.474;2023-03-03T05:43:44;7.88;;;6.28;;
60492;SDS011;46341;51.290;-2.474;2023-03-03T05:46:10;7.30;;;6.60;;
60492;SDS011;46341;51.290;-2.474;2023-03-03T05:48:37;6.43;;;5.80;;
60492;SDS011;46341;51.290;-2.474;2023-03-03T05:51:03;7.32;;;5.95;;
60492;SDS011;46341;51.290;-2.474;2023-03-03T05:53:30;8.52;;;5.97;;
60492;SDS011;46341;51.290;-2.474;2023-03-03T05:55:56;7.18;;;6.03;;
60492;SDS011;46341;51.290;-2.474;2023-03-03T05:58:23;7.25;;;5.80;;
60492;SDS011;46341;51.290;-2.474;2023-03-03T06:00:49;6.88;;;6.00;;
60492;SDS011;46341;51.290;-2.474;2023-03-03T06:03:15;6.65;;;5.60;;
60492;SDS011;46341;51.290;-2.474;2023-03-03T06:05:43;7.25;;;6.55;;
60492;SDS011;46341;51.290;-2.474;2023-03-03T06:08:09;8.40;;;5.80;;
60492;SDS011;46341;51.290;-2.474;2023-03-03T06:10:35;6.65;;;5.53;;
60492;SDS011;46341;51.290;-2.474;2023-03-03T06:13:02;11.75;;;6.15;;
60492;SDS011;46341;51.290;-2.474;2023-03-03T06:15:28;7.50;;;5.38;;
60492;SDS011;46341;51.290;-2.474;2023-03-03T06:17:55;5.78;;;4.90;;
60492;SDS011;46341;51.290;-2.474;2023-03-03T06:20:21;9.73;;;5.10;;
60492;SDS011;46341;51.290;-2.474;2023-03-03T06:22:47;7.65;;;5.38;;
60492;SDS011;46341;51.290;-2.474;2023-03-03T06:25:14;5.90;;;4.88;;
60492;SDS011;46341;51.290;-2.474;2023-03-03T06:27:40;6.85;;;4.90;;
60492;SDS011;46341;51.290;-2.474;2023-03-03T06:30:07;6.00;;;4.43;;
60492;SDS011;46341;51.290;-2.474;2023-03-03T06:32:33;7.80;;;6.30;;
60492;SDS011;46341;51.290;-2.474;2023-03-03T06:35:00;7.78;;;5.78;;
60492;SDS011;46341;51.290;-2.474;2023-03-03T06:37:26;5.68;;;4.32;;
60492;SDS011;46341;51.290;-2.474;2023-03-03T06:39:52;4.82;;;4.20;;
60492;SDS011;46341;51.290;-2.474;2023-03-03T06:42:19;5.45;;;3.95;;
60492;SDS011;46341;51.290;-2.474;2023-03-03T06:44:46;4.25;;;3.92;;
60492;SDS011;46341;51.290;-2.474;2023-03-03T06:47:12;4.22;;;3.92;;
60492;SDS011;46341;51.290;-2.474;2023-03-03T06:49:39;5.25;;;3.83;;
60492;SDS011;46341;51.290;-2.474;2023-03-03T06:52:10;4.97;;;4.10;;
60492;SDS011;46341;51.290;-2.474;2023-03-03T06:54:37;5.50;;;4.15;;
60492;SDS011;46341;51.290;-2.474;2023-03-03T06:57:19;8.52;;;4.60;;
60492;SDS011;46341;51.290;-2.474;2023-03-03T06:59:48;5.30;;;4.15;;
60492;SDS011;46341;51.290;-2.474;2023-03-03T07:02:17;4.32;;;3.92;;
60492;SDS011;46341;51.290;-2.474;2023-03-03T07:04:43;5.07;;;4.10;;
60492;SDS011;46341;51.290;-2.474;2023-03-03T07:07:16;6.72;;;4.20;;
60492;SDS011;46341;51.290;-2.474;2023-03-03T07:09:53;5.40;;;4.70;;
60492;SDS011;46341;51.290;-2.474;2023-03-03T07:12:29;4.87;;;4.20;;
60492;SDS011;46341;51.290;-2.474;2023-03-03T07:17:44;5.75;;;4.47;;
60492;SDS011;46341;51.290;-2.474;2023-03-03T07:20:17;5.78;;;4.40;;
60492;SDS011;46341;51.290;-2.474;2023-03-03T07:22:43;5.18;;;4.68;;
60492;SDS011;46341;51.290;-2.474;2023-03-03T07:25:20;7.85;;;4.90;;
60492;SDS011;46341;51.290;-2.474;2023-03-03T07:27:47;5.15;;;4.45;;
60492;SDS011;46341;51.290;-2.474;2023-03-03T07:30:26;5.10;;;4.43;;
60492;SDS011;46341;51.290;-2.474;2023-03-03T07:32:55;6.10;;;4.38;;
60492;SDS011;46341;51.290;-2.474;2023-03-03T07:35:40;6.35;;;4.40;;
60492;SDS011;46341;51.290;-2.474;2023-03-03T07:38:51;7.53;;;4.32;;
60492;SDS011;46341;51.290;-2.474;2023-03-03T07:40:57;4.95;;;3.95;;
60492;SDS011;46341;51.290;-2.474;2023-03-03T07:45:50;7.05;;;4.18;;
60492;SDS011;46341;51.290;-2.474;2023-03-03T07:50:49;5.30;;;4.20;;
60492;SDS011;46341;51.290;-2.474;2023-03-03T07:53:34;4.40;;;3.83;;
60492;SDS011;46341;51.290;-2.474;2023-03-03T07:56:04;8.40;;;4.53;;
60492;SDS011;46341;51.290;-2.474;2023-03-03T07:58:35;5.45;;;4.50;;
60492;SDS011;46341;51.290;-2.474;2023-03-03T08:03:47;5.70;;;3.83;;
60492;SDS011;46341;51.290;-2.474;2023-03-03T08:06:26;6.85;;;3.72;;
60492;SDS011;46341;51.290;-2.474;2023-03-03T08:09:01;6.55;;;3.75;;
60492;SDS011;46341;51.290;-2.474;2023-03-03T08:11:27;5.95;;;3.20;;
60492;SDS011;46341;51.290;-2.474;2023-03-03T08:13:54;5.07;;;3.60;;
60492;SDS011;46341;51.290;-2.474;2023-03-03T08:16:29;4.83;;;3.63;;
60492;SDS011;46341;51.290;-2.474;2023-03-03T08:19:01;4.10;;;3.17;;
60492;SDS011;46341;51.290;-2.474;2023-03-03T08:21:27;4.70;;;3.20;;
60492;SDS011;46341;51.290;-2.474;2023-03-03T08:23:54;6.90;;;3.47;;
60492;SDS011;46341;51.290;-2.474;2023-03-03T08:26:21;6.30;;;3.78;;
60492;SDS011;46341;51.290;-2.474;2023-03-03T08:28:47;4.97;;;4.10;;
60492;SDS011;46341;51.290;-2.474;2023-03-03T08:31:14;4.25;;;3.85;;
60492;SDS011;46341;51.290;-2.474;2023-03-03T08:33:59;3.67;;;3.38;;
60492;SDS011;46341;51.290;-2.474;2023-03-03T08:36:26;3.83;;;3.33;;
60492;SDS011;46341;51.290;-2.474;2023-03-03T08:38:52;5.05;;;3.45;;
60492;SDS011;46341;51.290;-2.474;2023-03-03T08:41:18;3.85;;;3.33;;
60492;SDS011;46341;51.290;-2.474;2023-03-03T08:43:45;4.03;;;3.08;;
60492;SDS011;46341;51.290;-2.474;2023-03-03T08:46:11;5.53;;;3.30;;
60492;SDS011;46341;51.290;-2.474;2023-03-03T08:48:39;6.53;;;4.65;;
60492;SDS011;46341;51.290;-2.474;2023-03-03T08:51:05;3.78;;;3.17;;
60492;SDS011;46341;51.290;-2.474;2023-03-03T08:53:32;3.20;;;2.92;;
60492;SDS011;46341;51.290;-2.474;2023-03-03T08:56:01;6.07;;;3.90;;
60492;SDS011;46341;51.290;-2.474;2023-03-03T08:58:28;3.40;;;2.83;;
60492;SDS011;46341;51.290;-2.474;2023-03-03T09:01:00;4.68;;;3.38;;
60492;SDS011;46341;51.290;-2.474;2023-03-03T09:03:27;9.32;;;3.25;;
60492;SDS011;46341;51.290;-2.474;2023-03-03T09:05:53;3.10;;;2.75;;
60492;SDS011;46341;51.290;-2.474;2023-03-03T09:08:20;3.88;;;2.90;;
60492;SDS011;46341;51.290;-2.474;2023-03-03T09:10:46;4.85;;;2.70;;
60492;SDS011;46341;51.290;-2.474;2023-03-03T09:13:13;6.13;;;3.20;;
60492;SDS011;46341;51.290;-2.474;2023-03-03T09:15:40;3.38;;;2.92;;
60492;SDS011;46341;51.290;-2.474;2023-03-03T09:20:40;4.05;;;3.15;;
60492;SDS011;46341;51.290;-2.474;2023-03-03T09:25:49;5.82;;;2.90;;
60492;SDS011;46341;51.290;-2.474;2023-03-03T09:28:23;7.97;;;2.72;;
60492;SDS011;46341;51.290;-2.474;2023-03-03T09:30:50;3.60;;;2.70;;
60492;SDS011;46341;51.290;-2.474;2023-03-03T09:33:25;4.10;;;2.47;;
60492;SDS011;46341;51.290;-2.474;2023-03-03T09:36:37;5.18;;;2.67;;
60492;SDS011;46341;51.290;-2.474;2023-03-03T09:38:43;3.72;;;2.55;;
60492;SDS011;46341;51.290;-2.474;2023-03-03T09:48:51;3.67;;;3.05;;
60492;SDS011;46341;51.290;-2.474;2023-03-03T09:51:24;3.22;;;2.30;;
60492;SDS011;46341;51.290;-2.474;2023-03-03T09:56:32;6.25;;;3.00;;
60492;SDS011;46341;51.290;-2.474;2023-03-03T10:01:39;3.28;;;2.58;;
60492;SDS011;46341;51.290;-2.474;2023-03-03T10:06:38;3.08;;;2.65;;
60492;SDS011;46341;51.290;-2.474;2023-03-03T10:19:52;4.35;;;2.10;;
60492;SDS011;46341;51.290;-2.474;2023-03-03T10:22:29;3.08;;;2.72;;
60492;SDS011;46341;51.290;-2.474;2023-03-03T10:32:29;4.57;;;2.78;;
60492;SDS011;46341;51.290;-2.474;2023-03-03T10:37:40;3.20;;;2.78;;
60492;SDS011;46341;51.290;-2.474;2023-03-03T10:54:09;4.15;;;3.55;;
60492;SDS011;46341;51.290;-2.474;2023-03-03T10:59:29;4.72;;;3.67;;
60492;SDS011;46341;51.290;-2.474;2023-03-03T11:02:03;4.60;;;3.72;;
60492;SDS011;46341;51.290;-2.474;2023-03-03T11:04:41;10.57;;;4.30;;
60492;SDS011;46341;51.290;-2.474;2023-03-03T11:07:14;6.78;;;5.22;;
60492;SDS011;46341;51.290;-2.474;2023-03-03T11:25:41;6.78;;;6.03;;
60492;SDS011;46341;51.290;-2.474;2023-03-03T11:43:44;6.63;;;5.88;;
60492;SDS011;46341;51.290;-2.474;2023-03-03T11:46:16;7.68;;;5.68;;
60492;SDS011;46341;51.290;-2.474;2023-03-03T11:48:52;5.38;;;4.80;;
60492;SDS011;46341;51.290;-2.474;2023-03-03T11:51:22;6.43;;;5.05;;
60492;SDS011;46341;51.290;-2.474;2023-03-03T12:01:55;6.97;;;4.90;;
60492;SDS011;46341;51.290;-2.474;2023-03-03T12:04:30;6.00;;;5.40;;
60492;SDS011;46341;51.290;-2.474;2023-03-03T12:10:02;6.35;;;4.80;;
60492;SDS011;46341;51.290;-2.474;2023-03-03T12:12:57;5.72;;;4.95;;
60492;SDS011;46341;51.290;-2.474;2023-03-03T12:26:00;6.03;;;4.03;;
60492;SDS011;46341;51.290;-2.474;2023-03-03T12:28:36;5.22;;;4.00;;
60492;SDS011;46341;51.290;-2.474;2023-03-03T12:33:52;3.83;;;3.50;;
60492;SDS011;46341;51.290;-2.474;2023-03-03T12:36:29;4.10;;;3.55;;
60492;SDS011;46341;51.290;-2.474;2023-03-03T12:42:02;3.92;;;3.30;;
60492;SDS011;46341;51.290;-2.474;2023-03-03T12:47:16;4.80;;;2.95;;
60492;SDS011;46341;51.290;-2.474;2023-03-03T12:55:39;2.97;;;2.60;;
60492;SDS011;46341;51.290;-2.474;2023-03-03T13:06:27;2.83;;;2.40;;
60492;SDS011;46341;51.290;-2.474;2023-03-03T13:14:10;2.67;;;2.47;;
60492;SDS011;46341;51.290;-2.474;2023-03-03T13:16:50;3.58;;;2.47;;
60492;SDS011;46341;51.290;-2.474;2023-03-03T13:22:40;2.35;;;2.25;;
60492;SDS011;46341;51.290;-2.474;2023-03-03T13:25:17;2.97;;;2.27;;
60492;SDS011;46341;51.290;-2.474;2023-03-03T13:27:49;4.20;;;2.25;;
60492;SDS011;46341;51.290;-2.474;2023-03-03T13:32:46;3.38;;;2.58;;
60492;SDS011;46341;51.290;-2.474;2023-03-03T13:37:42;5.57;;;2.80;;
60492;SDS011;46341;51.290;-2.474;2023-03-03T13:42:40;4.35;;;3.95;;
60492;SDS011;46341;51.290;-2.474;2023-03-03T13:45:20;4.55;;;3.03;;
60492;SDS011;46341;51.290;-2.474;2023-03-03T13:47:56;3.05;;;2.70;;
60492;SDS011;46341;51.290;-2.474;2023-03-03T13:50:31;5.20;;;4.03;;
60492;SDS011;46341;51.290;-2.474;2023-03-03T14:05:48;3.28;;;2.97;;
60492;SDS011;46341;51.290;-2.474;2023-03-03T14:13:46;4.10;;;2.70;;
60492;SDS011;46341;51.290;-2.474;2023-03-03T14:18:45;4.57;;;2.67;;
60492;SDS011;46341;51.290;-2.474;2023-03-03T14:21:19;2.55;;;1.95;;
60492;SDS011;46341;51.290;-2.474;2023-03-03T14:26:26;3.53;;;3.13;;
60492;SDS011;46341;51.290;-2.474;2023-03-03T14:29:03;3.10;;;2.80;;
60492;SDS011;46341;51.290;-2.474;2023-03-03T14:31:39;2.67;;;2.47;;
60492;SDS011;46341;51.290;-2.474;2023-03-03T14:36:38;2.28;;;2.00;;
60492;SDS011;46341;51.290;-2.474;2023-03-03T14:39:59;2.70;;;2.30;;
60492;SDS011;46341;51.290;-2.474;2023-03-03T14:41:51;2.70;;;2.50;;
60492;SDS011;46341;51.290;-2.474;2023-03-03T14:49:36;2.42;;;2.25;;
60492;SDS011;46341;51.290;-2.474;2023-03-03T14:54:46;3.38;;;2.10;;
60492;SDS011;46341;51.290;-2.474;2023-03-03T15:07:55;2.78;;;2.33;;
60492;SDS011;46341;51.290;-2.474;2023-03-03T15:10:33;3.10;;;2.40;;
60492;SDS011;46341;51.290;-2.474;2023-03-03T15:15:51;2.83;;;2.28;;
60492;SDS011;46341;51.290;-2.474;2023-03-03T15:18:26;2.40;;;2.00;;
60492;SDS011;46341;51.290;-2.474;2023-03-03T15:21:06;2.10;;;1.90;;
60492;SDS011;46341;51.290;-2.474;2023-03-03T15:31:37;2.15;;;1.73;;
60492;SDS011;46341;51.290;-2.474;2023-03-03T15:36:54;1.83;;;1.70;;
60492;SDS011;46341;51.290;-2.474;2023-03-03T15:42:10;2.30;;;1.90;;
60492;SDS011;46341;51.290;-2.474;2023-03-03T15:44:54;2.60;;;2.17;;
60492;SDS011;46341;51.290;-2.474;2023-03-03T15:55:16;40.90;;;19.17;;
60492;SDS011;46341;51.290;-2.474;2023-03-03T15:57:56;8.88;;;6.20;;
60492;SDS011;46341;51.290;-2.474;2023-03-03T16:05:54;1.60;;;1.40;;
60492;SDS011;46341;51.290;-2.474;2023-03-03T16:08:28;2.33;;;2.22;;
60492;SDS011;46341;51.290;-2.474;2023-03-03T16:18:23;1.90;;;1.80;;
60492;SDS011;46341;51.290;-2.474;2023-03-03T16:26:27;1.40;;;1.30;;
60492;SDS011;46341;51.290;-2.474;2023-03-03T16:29:13;2.20;;;1.60;;
60492;SDS011;46341;51.290;-2.474;2023-03-03T16:42:12;3.53;;;1.95;;
60492;SDS011;46341;51.290;-2.474;2023-03-03T16:50:43;3.22;;;2.40;;
60492;SDS011;46341;51.290;-2.474;2023-03-03T17:01:13;4.40;;;3.60;;
60492;SDS011;46341;51.290;-2.474;2023-03-03T17:06:48;4.10;;;3.70;;
60492;SDS011;46341;51.290;-2.474;2023-03-03T17:16:58;4.32;;;2.85;;
60492;SDS011;46341;51.290;-2.474;2023-03-03T17:19:39;4.05;;;2.60;;
60492;SDS011;46341;51.290;-2.474;2023-03-03T17:24:52;3.17;;;2.70;;
60492;SDS011;46341;51.290;-2.474;2023-03-03T17:27:31;3.08;;;2.78;;
60492;SDS011;46341;51.290;-2.474;2023-03-03T17:32:38;3.30;;;3.00;;
60492;SDS011;46341;51.290;-2.474;2023-03-03T17:45:15;4.72;;;3.75;;
60492;SDS011;46341;51.290;-2.474;2023-03-03T17:55:48;6.47;;;5.43;;
60492;SDS011;46341;51.290;-2.474;2023-03-03T18:01:17;9.23;;;7.50;;
60492;SDS011;46341;51.290;-2.474;2023-03-03T18:08:48;9.48;;;5.63;;
60492;SDS011;46341;51.290;-2.474;2023-03-03T18:17:27;6.57;;;5.80;;
60492;SDS011;46341;51.290;-2.474;2023-03-03T18:22:44;17.35;;;15.52;;
60492;SDS011;46341;51.290;-2.474;2023-03-03T18:25:12;38.88;;;35.03;;
60492;SDS011;46341;51.290;-2.474;2023-03-03T18:32:46;10.48;;;8.30;;
60492;SDS011;46341;51.290;-2.474;2023-03-03T18:35:25;8.70;;;7.80;;
60492;SDS011;46341;51.290;-2.474;2023-03-03T18:37:52;7.75;;;7.03;;
60492;SDS011;46341;51.290;-2.474;2023-03-03T18:42:49;10.55;;;9.57;;
60492;SDS011;46341;51.290;-2.474;2023-03-03T18:50:34;8.57;;;6.75;;
60492;SDS011;46341;51.290;-2.474;2023-03-03T18:53:09;9.18;;;7.97;;
60492;SDS011;46341;51.290;-2.474;2023-03-03T19:00:46;13.02;;;10.15;;
60492;SDS011;46341;51.290;-2.474;2023-03-03T19:05:55;14.35;;;12.50;;
60492;SDS011;46341;51.290;-2.474;2023-03-03T19:08:26;10.60;;;9.43;;
60492;SDS011;46341;51.290;-2.474;2023-03-03T19:10:57;10.95;;;9.70;;
60492;SDS011;46341;51.290;-2.474;2023-03-03T19:16:10;12.02;;;9.68;;
60492;SDS011;46341;51.290;-2.474;2023-03-03T19:21:21;12.20;;;9.98;;
60492;SDS011;46341;51.290;-2.474;2023-03-03T19:23:51;13.38;;;9.98;;
60492;SDS011;46341;51.290;-2.474;2023-03-03T19:28:54;11.98;;;10.32;;
60492;SDS011;46341;51.290;-2.474;2023-03-03T19:31:29;9.82;;;8.82;;
60492;SDS011;46341;51.290;-2.474;2023-03-03T19:34:05;9.88;;;8.98;;
60492;SDS011;46341;51.290;-2.474;2023-03-03T19:36:40;9.50;;;8.50;;
60492;SDS011;46341;51.290;-2.474;2023-03-03T19:57:43;6.65;;;5.95;;
60492;SDS011;46341;51.290;-2.474;2023-03-03T20:05:47;7.13;;;6.43;;
60492;SDS011;46341;51.290;-2.474;2023-03-03T20:08:20;8.45;;;7.03;;
60492;SDS011;46341;51.290;-2.474;2023-03-03T20:19:07;7.20;;;6.50;;
60492;SDS011;46341;51.290;-2.474;2023-03-03T20:21:51;8.00;;;7.20;;
60492;SDS011;46341;51.290;-2.474;2023-03-03T20:37:22;11.73;;;9.73;;
60492;SDS011;46341;51.290;-2.474;2023-03-03T20:50:06;11.88;;;10.32;;
60492;SDS011;46341;51.290;-2.474;2023-03-03T20:57:32;13.88;;;12.43;;
60492;SDS011;46341;51.290;-2.474;2023-03-03T21:05:12;13.23;;;11.82;;
60492;SDS011;46341;51.290;-2.474;2023-03-03T21:08:00;13.82;;;11.88;;
60492;SDS011;46341;51.290;-2.474;2023-03-03T21:10:27;14.65;;;11.75;;
60492;SDS011;46341;51.290;-2.474;2023-03-03T21:15:22;14.98;;;11.07;;
60492;SDS011;46341;51.290;-2.474;2023-03-03T21:17:49;12.63;;;10.55;;
60492;SDS011;46341;51.290;-2.474;2023-03-03T21:20:17;11.73;;;10.52;;
60492;SDS011;46341;51.290;-2.474;2023-03-03T21:22:44;12.77;;;11.48;;
60492;SDS011;46341;51.290;-2.474;2023-03-03T21:25:45;12.27;;;10.57;;
60492;SDS011;46341;51.290;-2.474;2023-03-03T21:30:58;12.50;;;11.02;;
60492;SDS011;46341;51.290;-2.474;2023-03-03T21:36:10;12.68;;;10.65;;
60492;SDS011;46341;51.290;-2.474;2023-03-03T21:41:04;13.13;;;11.30;;
60492;SDS011;46341;51.290;-2.474;2023-03-03T21:43:32;12.52;;;11.07;;
60492;SDS011;46341;51.290;-2.474;2023-03-03T21:45:59;12.57;;;10.43;;
60492;SDS011;46341;51.290;-2.474;2023-03-03T21:48:26;12.15;;;10.85;;
60492;SDS011;46341;51.290;-2.474;2023-03-03T21:50:52;14.48;;;11.38;;
60492;SDS011;46341;51.290;-2.474;2023-03-03T21:53:18;12.68;;;11.15;;
60492;SDS011;46341;51.290;-2.474;2023-03-03T21:55:46;12.02;;;10.73;;
60492;SDS011;46341;51.290;-2.474;2023-03-03T21:58:15;14.40;;;12.30;;
60492;SDS011;46341;51.290;-2.474;2023-03-03T22:00:41;12.73;;;11.30;;
60492;SDS011;46341;51.290;-2.474;2023-03-03T22:03:11;14.35;;;11.50;;
60492;SDS011;46341;51.290;-2.474;2023-03-03T22:05:38;13.70;;;12.18;;
60492;SDS011;46341;51.290;-2.474;2023-03-03T22:08:06;13.93;;;12.27;;